Time;durP1;ratioP1;P1;durP2;ratioP2;P2;SDS_P1;SDS_P2;PMS_P1;PMS_P2;Temp;Humidity;BMP_temperature;BMP_pressure;BME280_temperature;BME280_humidity;BME280_pressure;Samples;Min_cycle;Max_cycle;Signal;HPM_P1;HPM_P2
2022/06/06 00:01:53;;;;;;;19.30;17.40;;;16.80;84.20;;;;;;5100509;22;20411;-74
2022/06/06 00:04:23;;;;;;;20.15;18.10;;;16.80;84.30;;;;;;5040316;28;20429;-74
2022/06/06 00:06:51;;;;;;;19.80;17.67;;;16.80;84.80;;;;;;5023623;28;20434;-73
2022/06/06 00:09:18;;;;;;;18.50;16.70;;;16.70;85.80;;;;;;5023149;28;20426;-72
2022/06/06 00:11:45;;;;;;;19.77;17.87;;;16.80;85.00;;;;;;5023224;28;20469;-73
2022/06/06 00:14:14;;;;;;;20.40;18.20;;;16.80;84.70;;;;;;5014874;28;20438;-72
2022/06/06 00:16:43;;;;;;;19.35;17.35;;;16.80;84.80;;;;;;5026856;28;20840;-73
2022/06/06 00:19:10;;;;;;;20.83;18.67;;;16.80;84.80;;;;;;5023248;28;20425;-73
2022/06/06 00:21:37;;;;;;;21.83;19.52;;;16.80;84.80;;;;;;5023101;28;20710;-73
2022/06/06 00:24:05;;;;;;;21.30;19.08;;;16.80;84.60;;;;;;5022864;28;20425;-73
2022/06/06 00:26:33;;;;;;;21.95;18.73;;;16.80;84.70;;;;;;5023312;28;20433;-73
2022/06/06 00:29:00;;;;;;;22.92;20.52;;;16.80;84.80;;;;;;5027179;28;20425;-73
2022/06/06 00:37:00;;;;;;;23.10;20.13;;;16.80;85.00;;;;;;5026400;28;20867;-73
2022/06/06 00:39:27;;;;;;;22.43;19.60;;;16.80;85.90;;;;;;5039695;28;20417;-73
2022/06/06 00:41:56;;;;;;;22.80;20.30;;;16.80;85.20;;;;;;5026287;28;20863;-75
2022/06/06 00:44:28;;;;;;;21.70;19.40;;;16.80;85.10;;;;;;5026202;28;21081;-75
2022/06/06 00:47:03;;;;;;;21.60;19.30;;;16.80;85.10;;;;;;5023786;28;20427;-72
2022/06/06 00:49:36;;;;;;;21.63;19.33;;;16.80;85.00;;;;;;5026597;28;20419;-75
2022/06/06 00:52:09;;;;;;;21.80;19.60;;;16.80;85.20;;;;;;5039705;28;20962;-74
2022/06/06 00:54:36;;;;;;;20.23;18.05;;;16.80;85.10;;;;;;5026564;28;20423;-74
2022/06/06 00:57:06;;;;;;;22.37;20.10;;;16.90;85.50;;;;;;5025536;28;20434;-73
2022/06/06 00:59:36;;;;;;;20.67;18.63;;;16.90;85.30;;;;;;5025770;28;20419;-74
2022/06/06 01:02:05;;;;;;;21.30;19.08;;;16.90;85.20;;;;;;5026259;28;20433;-74
2022/06/06 01:04:34;;;;;;;21.40;19.17;;;16.90;84.90;;;;;;5017356;28;20423;-74
2022/06/06 01:07:02;;;;;;;20.52;18.10;;;16.80;85.10;;;;;;5026281;28;20415;-73
2022/06/06 01:09:29;;;;;;;20.10;17.98;;;16.80;84.20;;;;;;5026247;28;20439;-74
2022/06/06 01:12:00;;;;;;;21.48;17.77;;;16.80;84.20;;;;;;5026308;28;20930;-73
2022/06/06 01:14:32;;;;;;;18.58;16.67;;;16.80;84.10;;;;;;5025680;28;20415;-73
2022/06/06 01:17:03;;;;;;;18.70;16.70;;;16.80;83.60;;;;;;5018990;28;20441;-73
2022/06/06 01:19:56;;;;;;;17.48;15.68;;;16.80;83.20;;;;;;5026094;28;20414;-74
2022/06/06 01:23:20;;;;;;;17.10;15.23;;;16.70;83.20;;;;;;5026524;28;20962;-73
2022/06/06 01:26:14;;;;;;;16.27;14.68;;;16.70;83.40;;;;;;4998167;28;20475;-74
2022/06/06 01:28:52;;;;;;;17.15;15.10;;;16.70;83.60;;;;;;5032210;28;20506;-73
2022/06/06 01:31:25;;;;;;;17.75;15.88;;;16.70;83.80;;;;;;5014533;28;20518;-73
2022/06/06 01:33:54;;;;;;;17.48;15.68;;;16.70;83.60;;;;;;5024670;28;20515;-72
2022/06/06 01:36:22;;;;;;;17.25;15.50;;;16.70;84.00;;;;;;5035054;28;20417;-73
2022/06/06 01:38:50;;;;;;;17.85;16.13;;;16.70;83.90;;;;;;5028284;28;20418;-73
2022/06/06 01:41:23;;;;;;;17.30;15.60;;;16.70;84.00;;;;;;5025211;28;20420;-73
2022/06/06 01:43:55;;;;;;;18.63;16.70;;;16.70;83.90;;;;;;5024631;28;20860;-73
2022/06/06 01:46:27;;;;;;;17.70;15.85;;;16.70;84.10;;;;;;5024807;28;20411;-73
2022/06/06 01:48:56;;;;;;;18.27;16.30;;;16.60;84.30;;;;;;5024962;28;20426;-73
2022/06/06 01:51:24;;;;;;;17.08;15.38;;;16.60;84.10;;;;;;5025120;28;20833;-73
2022/06/06 01:53:51;;;;;;;17.10;15.43;;;16.60;84.50;;;;;;5005056;28;20408;-73
2022/06/06 01:56:23;;;;;;;15.55;14.05;;;16.60;83.70;;;;;;5018665;28;20487;-72
2022/06/06 01:58:52;;;;;;;16.35;14.65;;;16.60;83.50;;;;;;5025073;28;20419;-72
2022/06/06 02:01:20;;;;;;;15.30;13.80;;;16.60;83.50;;;;;;5026470;28;20423;-72
2022/06/06 02:03:47;;;;;;;15.55;13.95;;;16.60;83.70;;;;;;5020574;28;20746;-73
2022/06/06 02:06:14;;;;;;;15.50;13.90;;;16.50;83.90;;;;;;5020037;28;20427;-73
2022/06/06 02:08:43;;;;;;;15.40;13.80;;;16.40;84.00;;;;;;5024981;28;20454;-72
2022/06/06 02:11:10;;;;;;;14.52;13.02;;;16.40;84.20;;;;;;5026997;28;20504;-72
2022/06/06 02:13:37;;;;;;;13.18;11.85;;;16.40;84.50;;;;;;5029081;28;20411;-72
2022/06/06 02:16:06;;;;;;;13.23;11.43;;;16.40;84.00;;;;;;5027049;28;20511;-73
2022/06/06 02:18:33;;;;;;;11.95;10.85;;;16.40;84.80;;;;;;5034389;28;20436;-72
2022/06/06 02:21:01;;;;;;;11.52;10.32;;;16.40;83.90;;;;;;5028546;28;20430;-74
2022/06/06 02:23:28;;;;;;;11.40;10.20;;;16.40;83.00;;;;;;5024325;28;20427;-72
2022/06/06 02:25:55;;;;;;;10.73;9.63;;;16.30;83.00;;;;;;5023920;28;20859;-72
2022/06/06 02:28:22;;;;;;;10.40;9.13;;;16.30;83.20;;;;;;5035000;28;20487;-72
2022/06/06 02:30:49;;;;;;;10.02;9.02;;;16.30;83.20;;;;;;5027367;28;20437;-72
2022/06/06 02:33:17;;;;;;;10.05;8.73;;;16.30;83.10;;;;;;5024140;28;20922;-75
2022/06/06 02:35:44;;;;;;;9.82;8.93;;;16.30;83.10;;;;;;5024407;28;20764;-75
2022/06/06 02:38:14;;;;;;;9.40;8.50;;;16.20;83.10;;;;;;5024323;28;21062;-73
2022/06/06 02:40:44;;;;;;;9.60;8.70;;;16.20;83.20;;;;;;5024273;28;20422;-73
2022/06/06 02:43:12;;;;;;;10.00;9.00;;;16.20;83.70;;;;;;5024589;28;21056;-73
2022/06/06 02:45:39;;;;;;;9.88;8.98;;;16.20;83.80;;;;;;5024439;28;20445;-73
2022/06/06 02:48:07;;;;;;;9.45;8.38;;;16.10;83.90;;;;;;5023858;28;20427;-72
2022/06/06 02:50:36;;;;;;;9.30;7.50;;;16.00;84.10;;;;;;5010322;28;20452;-73
2022/06/06 02:53:02;;;;;;;9.80;8.90;;;16.00;84.10;;;;;;5023705;28;20498;-73
2022/06/06 02:55:31;;;;;;;9.13;8.32;;;16.00;84.20;;;;;;5023940;28;20419;-73
2022/06/06 02:58:00;;;;;;;9.55;8.63;;;15.90;84.50;;;;;;5023482;28;20488;-73
2022/06/06 03:00:28;;;;;;;8.20;7.50;;;15.90;84.50;;;;;;5024116;28;20422;-72
2022/06/06 03:02:56;;;;;;;8.80;7.90;;;15.80;84.70;;;;;;5022237;28;20446;-72
2022/06/06 03:05:28;;;;;;;8.77;7.97;;;15.90;84.60;;;;;;5022473;28;20423;-72
2022/06/06 03:08:10;;;;;;;8.63;7.65;;;15.90;84.70;;;;;;5022431;28;20530;-72
2022/06/06 03:10:49;;;;;;;7.90;7.10;;;15.90;84.90;;;;;;5021795;28;20435;-72
2022/06/06 03:13:30;;;;;;;7.60;6.80;;;15.90;84.60;;;;;;5016714;28;20737;-72
2022/06/06 03:22:13;;;;;;;6.90;6.20;;;16.00;83.10;;;;;;5022149;28;20866;-72
2022/06/06 03:24:55;;;;;;;7.50;6.80;;;16.10;82.90;;;;;;5010881;28;20526;-71
2022/06/06 03:27:30;;;;;;;6.90;6.30;;;16.10;82.70;;;;;;5023610;28;20429;-72
2022/06/06 03:30:06;;;;;;;6.95;6.35;;;16.10;82.40;;;;;;5034116;28;20423;-72
2022/06/06 03:32:49;;;;;;;6.83;6.17;;;16.10;82.40;;;;;;5023432;28;20429;-72
2022/06/06 03:35:22;;;;;;;6.72;6.13;;;16.00;82.40;;;;;;5023241;28;20530;-72
2022/06/06 03:37:55;;;;;;;7.03;6.33;;;16.00;82.70;;;;;;5023176;28;20437;-74
2022/06/06 03:40:33;;;;;;;6.18;5.55;;;16.00;82.60;;;;;;5023126;28;20419;-74
2022/06/06 03:43:07;;;;;;;6.20;5.60;;;16.00;82.40;;;;;;5034403;28;21019;-73
2022/06/06 03:45:40;;;;;;;6.35;5.75;;;15.90;82.50;;;;;;5024290;28;20423;-72
2022/06/06 03:48:18;;;;;;;6.97;6.38;;;15.90;82.50;;;;;;5024229;28;20430;-72
2022/06/06 03:50:50;;;;;;;6.70;6.10;;;15.90;82.60;;;;;;5012789;28;20936;-73
2022/06/06 03:53:23;;;;;;;6.30;5.70;;;15.90;82.20;;;;;;5025174;28;20890;-72
2022/06/06 03:56:03;;;;;;;6.60;5.72;;;15.90;82.40;;;;;;5015092;28;20420;-73
2022/06/06 03:58:33;;;;;;;6.57;5.87;;;15.90;82.50;;;;;;5024434;28;20501;-73
2022/06/06 04:01:04;;;;;;;6.70;6.00;;;15.90;82.10;;;;;;5037013;28;20421;-72
2022/06/06 04:03:32;;;;;;;6.25;5.75;;;15.90;81.70;;;;;;5027677;28;20782;-72
2022/06/06 04:06:02;;;;;;;9.07;6.40;;;15.90;81.70;;;;;;5026664;28;20513;-72
2022/06/06 04:08:29;;;;;;;5.63;5.13;;;15.80;81.70;;;;;;5014522;28;20483;-72
2022/06/06 04:11:07;;;;;;;6.97;6.38;;;15.80;82.20;;;;;;5039138;28;20516;-72
2022/06/06 04:13:44;;;;;;;6.57;5.97;;;15.90;81.60;;;;;;5026789;28;20415;-73
2022/06/06 04:16:23;;;;;;;6.70;6.10;;;15.80;81.20;;;;;;5026583;28;20434;-72
2022/06/06 04:19:02;;;;;;;6.88;6.28;;;15.80;81.40;;;;;;5026998;28;20423;-73
2022/06/06 04:21:40;;;;;;;6.53;5.93;;;15.90;81.00;;;;;;5013979;28;20768;-72
2022/06/06 04:24:25;;;;;;;7.03;5.82;;;15.90;81.00;;;;;;5026140;28;20435;-74
2022/06/06 04:26:59;;;;;;;6.90;6.30;;;15.90;80.80;;;;;;5026571;28;20522;-74
2022/06/06 04:29:34;;;;;;;6.50;5.90;;;16.00;80.20;;;;;;5026784;28;20445;-72
2022/06/06 04:32:11;;;;;;;6.60;6.00;;;16.00;79.10;;;;;;5026731;28;20442;-72
2022/06/06 04:34:45;;;;;;;6.30;5.70;;;16.00;79.50;;;;;;5014336;28;20410;-74
2022/06/06 04:37:20;;;;;;;6.00;5.50;;;16.00;79.00;;;;;;5026472;28;20429;-74
2022/06/06 04:39:55;;;;;;;6.40;5.80;;;16.00;78.50;;;;;;5026562;28;20421;-74
2022/06/06 04:42:33;;;;;;;6.20;5.60;;;16.00;77.60;;;;;;5039009;28;20779;-73
2022/06/06 04:45:06;;;;;;;5.70;5.20;;;16.00;77.40;;;;;;5026117;28;20429;-73
2022/06/06 04:47:37;;;;;;;6.53;5.82;;;16.10;77.10;;;;;;5026256;28;21050;-73
2022/06/06 04:50:06;;;;;;;5.97;5.38;;;16.10;76.50;;;;;;5026692;28;20426;-72
2022/06/06 04:52:35;;;;;;;5.78;5.28;;;16.10;76.60;;;;;;5026100;28;20431;-72
2022/06/06 04:55:05;;;;;;;6.20;5.70;;;16.10;76.40;;;;;;5026670;28;20511;-75
2022/06/06 04:57:36;;;;;;;5.93;5.50;;;16.10;76.70;;;;;;5026698;28;20423;-72
2022/06/06 05:00:06;;;;;;;6.07;5.57;;;16.20;77.20;;;;;;5026475;28;20437;-75
2022/06/06 05:02:34;;;;;;;6.13;5.55;;;16.10;76.20;;;;;;5024645;28;20856;-74
2022/06/06 05:05:01;;;;;;;6.07;5.57;;;16.10;76.10;;;;;;5011066;28;20895;-74
2022/06/06 05:07:43;;;;;;;5.68;4.88;;;16.10;76.80;;;;;;5026039;28;20419;-74
2022/06/06 05:10:29;;;;;;;5.10;4.63;;;16.10;77.20;;;;;;5025998;28;21058;-74
2022/06/06 05:13:17;;;;;;;6.20;5.55;;;16.10;77.50;;;;;;5024851;28;21124;-74
2022/06/06 05:15:54;;;;;;;6.90;5.40;;;16.10;76.90;;;;;;5036585;28;20421;-74
2022/06/06 05:18:50;;;;;;;6.18;5.47;;;16.00;77.40;;;;;;5026790;28;20419;-74
2022/06/06 05:21:38;;;;;;;6.10;5.50;;;16.00;78.90;;;;;;5020555;28;20426;-74
2022/06/06 05:24:20;;;;;;;4.90;4.50;;;16.00;77.90;;;;;;5025702;28;20427;-74
2022/06/06 05:27:06;;;;;;;5.10;4.70;;;15.90;78.20;;;;;;5013751;28;20423;-73
2022/06/06 05:29:54;;;;;;;4.80;4.40;;;15.90;78.00;;;;;;5015265;28;20429;-74
2022/06/06 05:32:49;;;;;;;4.63;4.23;;;15.80;78.90;;;;;;5026016;28;20448;-74
2022/06/06 05:35:25;;;;;;;5.20;4.70;;;15.90;79.30;;;;;;5010780;28;20576;-74
2022/06/06 05:38:06;;;;;;;5.10;4.60;;;16.00;78.70;;;;;;5031306;28;20417;-74
2022/06/06 05:40:38;;;;;;;5.20;4.70;;;16.10;78.40;;;;;;5031885;28;21124;-73
2022/06/06 05:43:22;;;;;;;5.50;5.00;;;16.10;77.50;;;;;;5025460;28;20426;-73
2022/06/06 05:46:04;;;;;;;4.80;4.30;;;16.10;77.30;;;;;;5025141;28;20454;-74
2022/06/06 05:48:59;;;;;;;6.10;5.10;;;16.10;77.80;;;;;;5026052;28;20820;-74
2022/06/06 05:51:38;;;;;;;4.80;4.00;;;16.10;77.60;;;;;;5025915;28;20421;-74
2022/06/06 05:54:14;;;;;;;4.20;3.80;;;16.00;76.90;;;;;;5025095;28;20411;-73
2022/06/06 05:57:11;;;;;;;4.10;3.70;;;16.00;76.70;;;;;;5038729;28;20499;-73
2022/06/06 06:00:03;;;;;;;3.80;3.42;;;16.10;76.90;;;;;;5025268;28;20425;-74
2022/06/06 06:02:48;;;;;;;3.72;3.40;;;16.20;74.00;;;;;;5031227;28;20485;-74
2022/06/06 06:05:20;;;;;;;4.00;3.00;;;16.20;74.20;;;;;;5020138;28;20439;-73
2022/06/06 06:08:00;;;;;;;3.00;2.80;;;16.40;73.90;;;;;;5025037;28;20419;-73
2022/06/06 06:10:38;;;;;;;3.90;3.60;;;16.60;73.50;;;;;;5025140;28;20422;-73
2022/06/06 06:13:35;;;;;;;3.10;2.80;;;16.70;72.00;;;;;;5024798;28;20419;-73
2022/06/06 06:16:05;;;;;;;2.70;2.50;;;16.60;69.50;;;;;;5024741;28;20429;-73
2022/06/06 06:18:37;;;;;;;3.78;2.95;;;16.50;70.90;;;;;;5025168;28;20426;-74
2022/06/06 06:21:09;;;;;;;3.13;2.40;;;16.50;70.70;;;;;;5025377;28;20445;-74
2022/06/06 06:23:40;;;;;;;2.80;2.60;;;16.60;69.40;;;;;;5024809;28;20446;-74
2022/06/06 06:26:07;;;;;;;2.42;2.22;;;16.50;69.00;;;;;;5024224;28;20426;-74
2022/06/06 06:28:36;;;;;;;4.43;2.30;;;16.60;68.50;;;;;;5025083;28;20447;-74
2022/06/06 06:31:17;;;;;;;2.47;2.28;;;16.60;67.10;;;;;;5024898;28;20442;-73
2022/06/06 06:33:58;;;;;;;2.60;2.20;;;16.80;66.80;;;;;;5023765;28;20506;-73
2022/06/06 06:36:42;;;;;;;2.20;2.00;;;16.90;65.60;;;;;;5024695;28;20415;-74
2022/06/06 06:39:20;;;;;;;2.10;1.90;;;17.00;66.40;;;;;;5024354;28;20423;-74
2022/06/06 06:42:00;;;;;;;1.80;1.70;;;17.10;64.40;;;;;;5024402;28;20434;-73
2022/06/06 06:44:29;;;;;;;2.40;1.90;;;17.30;62.10;;;;;;5027158;28;20772;-73
2022/06/06 06:46:58;;;;;;;2.00;1.80;;;17.30;62.90;;;;;;5027654;28;20433;-74
2022/06/06 06:49:36;;;;;;;3.78;1.80;;;17.40;60.40;;;;;;5044508;28;20421;-73
2022/06/06 06:52:15;;;;;;;2.03;1.83;;;17.40;60.60;;;;;;5025966;28;20842;-73
2022/06/06 06:54:56;;;;;;;1.85;1.65;;;17.50;59.60;;;;;;5023959;28;20414;-73
2022/06/06 06:57:33;;;;;;;2.42;1.70;;;17.60;59.10;;;;;;5024620;28;20425;-73
2022/06/06 07:00:07;;;;;;;1.90;1.70;;;17.60;60.50;;;;;;5025451;28;20772;-73
2022/06/06 07:08:38;;;;;;;4.23;1.70;;;17.60;58.20;;;;;;5024168;28;20422;-73
2022/06/06 07:11:31;;;;;;;2.23;1.70;;;17.70;59.20;;;;;;5023932;28;20419;-73
2022/06/06 07:14:08;;;;;;;1.70;1.60;;;17.80;57.70;;;;;;5021239;28;20910;-73
2022/06/06 07:16:38;;;;;;;3.10;1.60;;;17.70;58.00;;;;;;5024120;28;20433;-73
2022/06/06 07:19:09;;;;;;;1.73;1.58;;;17.70;58.50;;;;;;5023963;28;20414;-74
2022/06/06 07:21:39;;;;;;;1.90;1.50;;;17.80;57.20;;;;;;5011307;28;20415;-74
2022/06/06 07:24:08;;;;;;;1.50;1.20;;;17.70;56.70;;;;;;5023563;28;20506;-73
2022/06/06 07:26:38;;;;;;;2.10;1.30;;;17.80;55.90;;;;;;5023455;28;20423;-73
2022/06/06 07:29:07;;;;;;;1.50;1.33;;;17.80;56.10;;;;;;5024053;28;20566;-73
2022/06/06 07:31:48;;;;;;;1.80;1.50;;;17.80;56.10;;;;;;5023855;28;20847;-74
2022/06/06 07:34:42;;;;;;;1.30;1.20;;;17.80;57.50;;;;;;5023244;28;20495;-74
2022/06/06 07:37:27;;;;;;;1.42;1.33;;;18.00;57.00;;;;;;5023175;28;20427;-74
2022/06/06 07:40:01;;;;;;;1.60;1.40;;;18.10;56.90;;;;;;5023898;28;20532;-73
2022/06/06 07:42:56;;;;;;;1.30;1.20;;;18.20;56.80;;;;;;5028906;28;20909;-74
2022/06/06 07:45:29;;;;;;;1.40;1.30;;;18.40;54.60;;;;;;5026974;28;20422;-73
2022/06/06 07:48:12;;;;;;;1.60;1.20;;;18.40;54.60;;;;;;5023752;28;20539;-74
2022/06/06 07:50:46;;;;;;;1.55;1.30;;;18.60;55.70;;;;;;5011124;28;20457;-73
2022/06/06 07:53:22;;;;;;;1.70;1.10;;;18.70;54.30;;;;;;5024753;28;20454;-74
2022/06/06 07:55:54;;;;;;;1.45;1.30;;;19.00;53.30;;;;;;5033524;28;20433;-74
2022/06/06 07:58:27;;;;;;;1.43;1.10;;;19.00;54.40;;;;;;5023926;28;20423;-73
2022/06/06 08:01:03;;;;;;;2.30;1.50;;;19.10;52.30;;;;;;5023813;28;20423;-74
2022/06/06 08:03:43;;;;;;;1.50;1.20;;;19.10;53.00;;;;;;5020067;28;20418;-73
2022/06/06 08:06:31;;;;;;;2.28;1.50;;;19.30;51.50;;;;;;5023810;28;20425;-74
2022/06/06 08:09:31;;;;;;;1.73;1.05;;;19.40;52.20;;;;;;5023284;28;20763;-74
2022/06/06 08:12:24;;;;;;;1.15;1.00;;;19.50;51.00;;;;;;5023630;28;20433;-73
2022/06/06 08:15:04;;;;;;;1.13;1.02;;;19.70;51.00;;;;;;5029839;28;20439;-73
2022/06/06 08:17:43;;;;;;;1.63;1.10;;;19.90;48.50;;;;;;5028458;28;20457;-73
2022/06/06 08:20:19;;;;;;;1.30;1.00;;;20.10;48.80;;;;;;5023960;28;20427;-73
2022/06/06 08:22:47;;;;;;;1.17;0.90;;;20.20;48.10;;;;;;5023216;28;20449;-74
2022/06/06 08:25:17;;;;;;;0.82;0.80;;;20.10;48.40;;;;;;5023696;28;20439;-73
2022/06/06 08:27:47;;;;;;;1.20;0.60;;;20.10;49.00;;;;;;5023597;28;20471;-74
2022/06/06 08:30:15;;;;;;;2.40;0.70;;;20.00;46.50;;;;;;5023560;28;20427;-73
2022/06/06 08:32:42;;;;;;;1.45;0.75;;;20.00;47.10;;;;;;5009520;28;21003;-73
2022/06/06 08:35:10;;;;;;;1.17;0.90;;;20.10;48.60;;;;;;5023088;28;20497;-73
2022/06/06 08:38:09;;;;;;;0.80;0.70;;;20.30;46.70;;;;;;5023451;28;20423;-73
2022/06/06 08:41:11;;;;;;;1.23;1.10;;;20.10;46.50;;;;;;5023436;28;20494;-73
2022/06/06 08:44:02;;;;;;;1.85;0.98;;;19.70;48.90;;;;;;5022464;28;20445;-74
2022/06/06 08:46:43;;;;;;;1.60;0.90;;;19.60;49.60;;;;;;5023441;28;20418;-74
2022/06/06 08:52:12;;;;;;;1.73;0.98;;;19.90;48.90;;;;;;5027730;28;20470;-74
2022/06/06 08:55:15;;;;;;;1.20;1.10;;;19.90;48.90;;;;;;5026470;28;20490;-74
2022/06/06 08:58:10;;;;;;;1.10;0.80;;;19.70;50.30;;;;;;5018401;28;20502;-74
2022/06/06 09:00:48;;;;;;;1.40;0.90;;;19.90;49.30;;;;;;5014862;28;20555;-73
2022/06/06 09:03:58;;;;;;;1.92;0.73;;;20.20;47.90;;;;;;5023170;28;20493;-74
2022/06/06 09:07:09;;;;;;;1.25;0.80;;;20.30;48.90;;;;;;5026520;28;20421;-73
2022/06/06 09:10:26;;;;;;;0.88;0.73;;;20.80;48.00;;;;;;5026596;28;20527;-74
2022/06/06 09:13:25;;;;;;;1.10;0.80;;;21.40;44.10;;;;;;5010953;28;20423;-73
2022/06/06 09:16:41;;;;;;;1.50;0.70;;;21.50;43.70;;;;;;5026089;28;20521;-74
2022/06/06 09:19:31;;;;;;;0.77;0.60;;;21.80;43.40;;;;;;5039152;28;20517;-74
2022/06/06 09:22:18;;;;;;;0.90;0.70;;;21.90;43.60;;;;;;5026707;28;20437;-73
2022/06/06 09:25:08;;;;;;;1.20;0.60;;;22.10;44.10;;;;;;5020266;28;20458;-73
2022/06/06 09:28:11;;;;;;;1.63;0.70;;;22.40;42.00;;;;;;5028435;28;20482;-73
2022/06/06 09:31:24;;;;;;;1.20;0.70;;;22.70;40.40;;;;;;5026266;28;20434;-73
2022/06/06 09:34:26;;;;;;;1.00;0.60;;;22.30;41.80;;;;;;5025863;28;20506;-74
2022/06/06 09:37:06;;;;;;;1.00;0.60;;;21.90;42.60;;;;;;5026570;28;20469;-73
2022/06/06 09:39:42;;;;;;;1.55;1.00;;;21.60;44.30;;;;;;5046069;28;20413;-73
2022/06/06 09:42:29;;;;;;;3.40;1.20;;;21.20;49.00;;;;;;5028246;28;20431;-73
2022/06/06 09:45:29;;;;;;;3.17;1.50;;;20.40;60.40;;;;;;5025915;28;20533;-74
2022/06/06 09:48:42;;;;;;;1.13;1.02;;;19.00;69.70;;;;;;5018999;28;20422;-74
2022/06/06 09:51:38;;;;;;;1.70;1.60;;;17.00;76.20;;;;;;5018247;28;20427;-74
2022/06/06 10:01:49;;;;;;;4.15;2.30;;;15.20;88.40;;;;;;5027231;28;20494;-73
2022/06/06 10:04:58;;;;;;;2.95;2.65;;;15.60;91.50;;;;;;5020401;28;20518;-74
2022/06/06 10:08:01;;;;;;;2.75;1.90;;;16.40;92.30;;;;;;5027237;28;20508;-74
2022/06/06 10:11:13;;;;;;;2.50;1.50;;;16.70;84.60;;;;;;5014282;28;20434;-74
2022/06/06 10:13:55;;;;;;;2.42;1.70;;;16.70;79.20;;;;;;5023555;28;20417;-74
2022/06/06 10:16:42;;;;;;;1.80;1.40;;;16.90;81.30;;;;;;5031783;28;20773;-74
2022/06/06 10:19:23;;;;;;;1.88;1.67;;;17.10;80.20;;;;;;5029746;28;20438;-74
2022/06/06 10:22:08;;;;;;;2.30;1.30;;;17.30;78.40;;;;;;5038319;28;20839;-74
2022/06/06 10:25:13;;;;;;;2.10;1.48;;;17.30;75.40;;;;;;5020210;28;20866;-74
2022/06/06 10:27:55;;;;;;;1.90;1.60;;;17.50;75.70;;;;;;5027521;28;20428;-74
2022/06/06 10:30:29;;;;;;;1.50;1.30;;;17.60;76.30;;;;;;5045188;28;20428;-74
2022/06/06 10:33:18;;;;;;;2.65;1.40;;;17.80;73.90;;;;;;5040414;28;21048;-74
2022/06/06 10:36:16;;;;;;;2.85;1.40;;;17.80;69.10;;;;;;5024697;28;20415;-74
2022/06/06 10:39:13;;;;;;;2.30;1.30;;;17.70;69.70;;;;;;5025188;28;20419;-74
2022/06/06 10:42:01;;;;;;;1.50;1.40;;;17.70;71.50;;;;;;5037766;28;20427;-74
2022/06/06 10:44:53;;;;;;;2.10;1.65;;;17.60;69.30;;;;;;5014921;28;20453;-74
2022/06/06 10:47:40;;;;;;;1.60;1.48;;;17.50;70.70;;;;;;5012042;28;21145;-74
2022/06/06 10:50:12;;;;;;;2.23;1.40;;;17.50;70.60;;;;;;5024675;28;20518;-73
2022/06/06 10:53:07;;;;;;;3.25;1.73;;;17.60;70.70;;;;;;5035166;28;20878;-74
2022/06/06 10:56:05;;;;;;;2.10;1.40;;;17.60;76.70;;;;;;5021065;28;20412;-73
2022/06/06 10:59:11;;;;;;;2.75;1.95;;;17.40;73.00;;;;;;5044043;28;20424;-74
2022/06/06 11:02:08;;;;;;;1.70;1.55;;;17.20;77.90;;;;;;5021935;28;20425;-74
2022/06/06 11:05:00;;;;;;;1.30;1.20;;;17.40;78.40;;;;;;5021891;28;20426;-74
2022/06/06 11:07:59;;;;;;;1.75;1.10;;;17.50;73.40;;;;;;5036668;28;20421;-73
2022/06/06 11:10:53;;;;;;;2.67;1.30;;;17.60;70.60;;;;;;5043419;28;21090;-74
2022/06/06 11:13:35;;;;;;;2.55;1.40;;;17.70;69.60;;;;;;5043611;28;20468;-74
2022/06/06 11:16:23;;;;;;;1.70;1.00;;;17.70;68.60;;;;;;5039957;28;20426;-74
2022/06/06 11:19:30;;;;;;;1.30;1.20;;;18.10;67.70;;;;;;5036748;28;20634;-74
2022/06/06 11:22:21;;;;;;;1.60;1.20;;;18.50;68.50;;;;;;5011992;28;20953;-74
2022/06/06 11:24:58;;;;;;;2.33;0.90;;;19.00;65.80;;;;;;5024012;28;20435;-73
2022/06/06 11:27:49;;;;;;;1.90;1.23;;;19.30;63.60;;;;;;5035870;28;20417;-74
2022/06/06 11:30:28;;;;;;;2.20;1.15;;;19.60;65.10;;;;;;5013533;28;20426;-74
2022/06/06 11:33:49;;;;;;;2.20;1.00;;;19.90;63.20;;;;;;5026198;28;20479;-74
2022/06/06 11:36:46;;;;;;;1.80;1.13;;;20.20;61.00;;;;;;5037194;28;20470;-74
2022/06/06 11:39:56;;;;;;;1.50;1.00;;;20.70;58.40;;;;;;5037176;28;20904;-74
2022/06/06 11:42:36;;;;;;;1.90;1.00;;;21.20;60.50;;;;;;4961556;28;20427;-74
2022/06/06 11:45:30;;;;;;;1.10;0.70;;;21.40;56.30;;;;;;4962549;28;20432;-74
2022/06/06 11:48:23;;;;;;;1.20;0.70;;;21.70;52.80;;;;;;4996556;28;20417;-74
2022/06/06 11:51:13;;;;;;;0.80;0.70;;;21.80;49.50;;;;;;5030260;28;20508;-75
2022/06/06 11:54:16;;;;;;;1.50;0.90;;;21.80;48.00;;;;;;5030327;28;20426;-75
2022/06/06 11:57:06;;;;;;;1.00;0.80;;;21.70;52.80;;;;;;4978751;28;20411;-75
2022/06/06 12:00:04;;;;;;;0.85;0.80;;;22.20;47.80;;;;;;5023788;28;20433;-75
2022/06/06 12:02:55;;;;;;;1.00;0.90;;;21.90;45.80;;;;;;5020558;28;20518;-75
2022/06/06 12:05:42;;;;;;;1.20;0.90;;;21.80;46.00;;;;;;5028221;28;20451;-74
2022/06/06 12:08:35;;;;;;;2.30;1.10;;;21.90;47.00;;;;;;5032193;28;20430;-75
2022/06/06 12:11:29;;;;;;;1.20;0.80;;;22.20;47.60;;;;;;5024120;28;20876;-75
2022/06/06 12:14:14;;;;;;;1.58;0.90;;;22.50;42.00;;;;;;5012209;28;20523;-75
2022/06/06 12:16:55;;;;;;;1.10;0.85;;;22.60;42.60;;;;;;5023623;28;20419;-75
2022/06/06 12:19:43;;;;;;;1.10;0.85;;;22.50;40.20;;;;;;5029556;28;20420;-75
2022/06/06 12:22:43;;;;;;;1.40;1.00;;;22.60;40.80;;;;;;5014018;28;20840;-75
2022/06/06 12:25:50;;;;;;;1.87;0.73;;;22.60;40.40;;;;;;5018707;28;20454;-75
2022/06/06 12:28:51;;;;;;;1.20;0.60;;;22.50;37.70;;;;;;4966841;28;20431;-75
2022/06/06 12:31:42;;;;;;;1.40;0.60;;;22.30;37.90;;;;;;5040680;28;20442;-75
2022/06/06 12:34:13;;;;;;;1.00;0.50;;;22.00;38.60;;;;;;5027083;28;20468;-75
2022/06/06 12:36:52;;;;;;;0.90;0.50;;;22.00;38.80;;;;;;5025740;28;20525;-75
2022/06/06 12:39:29;;;;;;;1.50;0.68;;;22.20;39.40;;;;;;5026449;28;20442;-74
2022/06/06 12:42:08;;;;;;;0.80;0.68;;;22.50;38.60;;;;;;5025217;28;20423;-75
2022/06/06 12:44:53;;;;;;;1.60;0.90;;;22.50;38.50;;;;;;5031637;28;20730;-75
2022/06/06 12:47:44;;;;;;;1.40;0.98;;;22.60;40.20;;;;;;5023763;28;20411;-75
2022/06/06 12:50:26;;;;;;;1.90;0.70;;;22.80;38.30;;;;;;5027148;28;20425;-75
2022/06/06 12:53:29;;;;;;;1.00;0.80;;;22.70;38.70;;;;;;5023086;28;20421;-75
2022/06/06 12:59:18;;;;;;;1.05;0.80;;;23.30;39.90;;;;;;5007841;28;20411;-75
2022/06/06 13:01:58;;;;;;;0.95;0.80;;;22.90;38.80;;;;;;5025837;28;20422;-75
2022/06/06 13:04:43;;;;;;;2.10;0.80;;;22.50;40.20;;;;;;5036823;28;20417;-75
2022/06/06 13:07:38;;;;;;;1.30;1.00;;;22.50;40.90;;;;;;5026280;28;20487;-75
2022/06/06 13:10:20;;;;;;;1.75;1.00;;;22.70;42.20;;;;;;5037766;28;20527;-74
2022/06/06 13:13:34;;;;;;;2.22;1.30;;;22.80;43.00;;;;;;5037586;28;20425;-74
2022/06/06 13:16:09;;;;;;;1.40;1.00;;;22.90;44.90;;;;;;4971807;28;20427;-75
2022/06/06 13:18:54;;;;;;;1.83;1.10;;;23.30;42.20;;;;;;5022019;28;20418;-74
2022/06/06 13:21:28;;;;;;;3.08;0.90;;;23.40;41.20;;;;;;5012916;28;20426;-75
2022/06/06 13:24:22;;;;;;;1.80;0.90;;;23.40;40.10;;;;;;5025517;28;20494;-75
2022/06/06 13:26:53;;;;;;;2.30;0.80;;;23.60;41.70;;;;;;5025843;28;20449;-74
2022/06/06 13:29:31;;;;;;;1.88;0.80;;;23.40;39.70;;;;;;5038721;28;20485;-74
2022/06/06 13:32:08;;;;;;;2.58;1.20;;;23.10;40.90;;;;;;5034143;28;20429;-74
2022/06/06 13:35:01;;;;;;;2.00;0.85;;;23.10;39.90;;;;;;5030663;28;20418;-74
2022/06/06 13:37:41;;;;;;;1.92;0.98;;;23.00;40.40;;;;;;5045186;28;20444;-74
2022/06/06 13:40:33;;;;;;;2.87;1.10;;;22.90;39.90;;;;;;5035126;28;20433;-75
2022/06/06 13:43:27;;;;;;;2.00;0.80;;;23.10;41.50;;;;;;5025458;28;20449;-75
2022/06/06 13:46:08;;;;;;;1.35;0.90;;;23.30;40.10;;;;;;5039025;28;20434;-74
2022/06/06 13:48:56;;;;;;;3.28;1.00;;;23.20;40.70;;;;;;5025751;28;20415;-73
2022/06/06 13:51:36;;;;;;;2.63;0.80;;;23.30;41.40;;;;;;5025733;28;20410;-74
2022/06/06 13:54:04;;;;;;;0.90;0.60;;;23.70;38.40;;;;;;5045037;28;20417;-74
2022/06/06 13:56:51;;;;;;;2.80;1.00;;;23.70;38.90;;;;;;5032931;28;20806;-74
2022/06/06 13:59:38;;;;;;;1.45;0.70;;;24.20;36.00;;;;;;5025433;28;20419;-74
2022/06/06 14:02:23;;;;;;;1.50;0.77;;;24.20;35.00;;;;;;5026228;28;20453;-74
2022/06/06 14:05:10;;;;;;;1.70;0.77;;;23.80;36.70;;;;;;5038630;28;20603;-73
2022/06/06 14:07:53;;;;;;;2.10;1.05;;;24.00;36.80;;;;;;5028918;28;20535;-74
2022/06/06 14:10:21;;;;;;;1.63;0.80;;;23.90;35.90;;;;;;5030000;28;20467;-73
2022/06/06 14:13:00;;;;;;;0.90;0.70;;;23.70;35.50;;;;;;5032956;28;20738;-73
2022/06/06 14:15:29;;;;;;;1.08;0.60;;;23.60;34.90;;;;;;5032249;28;20592;-73
2022/06/06 14:18:00;;;;;;;1.20;0.60;;;23.70;34.50;;;;;;5031446;28;20415;-73
2022/06/06 14:20:35;;;;;;;0.70;0.60;;;24.00;33.70;;;;;;5020127;28;20412;-73
2022/06/06 14:23:21;;;;;;;1.17;0.88;;;23.70;33.70;;;;;;5021298;28;20613;-75